Time;durP1;ratioP1;P1;durP2;ratioP2;P2;SDS_P1;SDS_P2;PMS_P1;PMS_P2;Temp;Humidity;BMP_temperature;BMP_pressure;BME280_temperature;BME280_humidity;BME280_pressure;Samples;Min_cycle;Max_cycle;Signal;HPM_P1;HPM_P2
2023/10/02 00:01:17;;;;;;;0.00;0.00;;;;;;;;;;4979061;28;20077;-86
2023/10/02 00:03:44;;;;;;;0.00;0.00;;;;;;;;;;4978131;28;20117;-86
2023/10/02 00:06:10;;;;;;;0.00;0.00;;;;;;;;;;5001260;28;20030;-86
2023/10/02 00:08:42;;;;;;;0.00;0.00;;;;;;;;;;4987053;28;20029;-87
2023/10/02 00:11:35;;;;;;;0.00;0.00;;;;;;;;;;4996126;28;20096;-87
2023/10/02 00:14:18;;;;;;;0.00;0.00;;;;;;;;;;4998105;28;20057;-86
2023/10/02 00:16:42;;;;;;;0.00;0.00;;;;;;;;;;4998034;28;20072;-87
2023/10/02 00:19:22;;;;;;;0.00;0.00;;;;;;;;;;4980783;28;20035;-85
2023/10/02 00:21:49;;;;;;;0.00;0.00;;;;;;;;;;4998195;28;20053;-85
2023/10/02 00:24:16;;;;;;;0.00;0.00;;;;;;;;;;4998692;28;20030;-86
2023/10/02 00:26:42;;;;;;;0.00;0.00;;;;;;;;;;4999682;28;20041;-87
2023/10/02 00:29:09;;;;;;;0.00;0.00;;;;;;;;;;5014686;28;20042;-87
2023/10/02 00:31:38;;;;;;;0.00;0.00;;;;;;;;;;5011109;28;20053;-87
2023/10/02 00:34:04;;;;;;;0.00;0.00;;;;;;;;;;5011241;28;20042;-85
2023/10/02 00:36:30;;;;;;;0.00;0.00;;;;;;;;;;4989647;28;20030;-86
2023/10/02 00:42:09;;;;;;;0.00;0.00;;;;;;;;;;4998232;28;20476;-87
2023/10/02 00:44:51;;;;;;;0.00;0.00;;;;;;;;;;4998359;28;20030;-85
2023/10/02 00:47:15;;;;;;;0.00;0.00;;;;;;;;;;4983000;28;20022;-83
2023/10/02 00:49:41;;;;;;;0.00;0.00;;;;;;;;;;4992434;28;20380;-85
2023/10/02 00:52:08;;;;;;;0.00;0.00;;;;;;;;;;4994191;28;20035;-84
2023/10/02 00:54:34;;;;;;;0.00;0.00;;;;;;;;;;4987206;28;20034;-86
2023/10/02 00:57:16;;;;;;;0.00;0.00;;;;;;;;;;4981531;28;20066;-85
2023/10/02 00:59:44;;;;;;;0.00;0.00;;;;;;;;;;4977464;28;20243;-87
2023/10/02 01:02:11;;;;;;;0.00;0.00;;;;;;;;;;4976474;28;20027;-88
2023/10/02 01:04:36;;;;;;;0.00;0.00;;;;;;;;;;4978031;28;20026;-87
2023/10/02 01:07:11;;;;;;;0.00;0.00;;;;;;;;;;4976488;28;20030;-86
2023/10/02 01:09:37;;;;;;;0.00;0.00;;;;;;;;;;4961914;28;20027;-85
2023/10/02 01:12:03;;;;;;;0.00;0.00;;;;;;;;;;4981240;28;20018;-85
2023/10/02 01:17:14;;;;;;;0.00;0.00;;;;;;;;;;4963467;28;20034;-84
2023/10/02 01:19:54;;;;;;;0.00;0.00;;;;;;;;;;4977496;28;20033;-85
2023/10/02 01:22:27;;;;;;;0.00;0.00;;;;;;;;;;4962226;28;20125;-86
2023/10/02 01:25:16;;;;;;;0.00;0.00;;;;;;;;;;4960700;28;20429;-86
2023/10/02 01:27:48;;;;;;;0.00;0.00;;;;;;;;;;4977344;28;20420;-86
2023/10/02 01:30:17;;;;;;;0.00;0.00;;;;;;;;;;4960185;28;20054;-86
2023/10/02 01:35:46;;;;;;;0.00;0.00;;;;;;;;;;4979826;28;20094;-87
2023/10/02 01:38:15;;;;;;;0.00;0.00;;;;;;;;;;4947185;28;20037;-85
2023/10/02 01:40:48;;;;;;;0.00;0.00;;;;;;;;;;4976731;28;20138;-86
2023/10/02 01:43:14;;;;;;;0.00;0.00;;;;;;;;;;4959988;28;20035;-87
2023/10/02 01:45:44;;;;;;;0.00;0.00;;;;;;;;;;4959360;28;20035;-88
2023/10/02 01:48:15;;;;;;;0.00;0.00;;;;;;;;;;4944011;28;20026;-86
2023/10/02 01:50:43;;;;;;;0.00;0.00;;;;;;;;;;4944694;28;20074;-86
2023/10/02 01:53:30;;;;;;;0.00;0.00;;;;;;;;;;4973910;28;20022;-85
2023/10/02 01:56:10;;;;;;;0.00;0.00;;;;;;;;;;4977775;28;20030;-87
2023/10/02 01:58:39;;;;;;;0.00;0.00;;;;;;;;;;4989992;28;20027;-86
2023/10/02 02:01:06;;;;;;;0.00;0.00;;;;;;;;;;4977405;28;20045;-87
2023/10/02 02:03:33;;;;;;;0.00;0.00;;;;;;;;;;4976922;28;20121;-85
2023/10/02 02:05:58;;;;;;;0.00;0.00;;;;;;;;;;4977141;28;20041;-86
2023/10/02 02:08:24;;;;;;;0.00;0.00;;;;;;;;;;4976857;28;20109;-86
2023/10/02 02:11:14;;;;;;;0.00;0.00;;;;;;;;;;4976921;28;20420;-87
2023/10/02 02:13:44;;;;;;;0.00;0.00;;;;;;;;;;4977122;28;20380;-87
2023/10/02 02:16:14;;;;;;;0.00;0.00;;;;;;;;;;4991159;28;20030;-87
2023/10/02 02:18:42;;;;;;;0.00;0.00;;;;;;;;;;4981259;28;20042;-84
2023/10/02 02:21:10;;;;;;;0.00;0.00;;;;;;;;;;4988776;28;20042;-85
2023/10/02 02:23:36;;;;;;;0.00;0.00;;;;;;;;;;4927815;28;20086;-84
2023/10/02 02:26:01;;;;;;;0.00;0.00;;;;;;;;;;4959067;28;20038;-86
2023/10/02 02:28:28;;;;;;;0.00;0.00;;;;;;;;;;4959074;28;20026;-85
2023/10/02 02:30:55;;;;;;;0.00;0.00;;;;;;;;;;4959046;28;20369;-86
2023/10/02 02:33:37;;;;;;;0.00;0.00;;;;;;;;;;4958602;28;20041;-86
2023/10/02 02:36:06;;;;;;;0.00;0.00;;;;;;;;;;4945081;28;20031;-88
2023/10/02 02:38:33;;;;;;;0.00;0.00;;;;;;;;;;4943299;28;20034;-85
2023/10/02 02:41:06;;;;;;;0.00;0.00;;;;;;;;;;4969152;28;20034;-84
2023/10/02 02:43:32;;;;;;;0.00;0.00;;;;;;;;;;4967453;28;20038;-86
2023/10/02 02:45:57;;;;;;;0.00;0.00;;;;;;;;;;4959177;28;20034;-87
2023/10/02 02:48:25;;;;;;;0.00;0.00;;;;;;;;;;4975985;28;20031;-85
2023/10/02 02:50:51;;;;;;;0.00;0.00;;;;;;;;;;4976123;28;20038;-87
2023/10/02 02:53:16;;;;;;;0.00;0.00;;;;;;;;;;4958638;28;20037;-87
2023/10/02 02:55:45;;;;;;;0.00;0.00;;;;;;;;;;4991086;28;20030;-85
2023/10/02 02:58:11;;;;;;;0.00;0.00;;;;;;;;;;4958506;28;20030;-86
2023/10/02 03:00:39;;;;;;;0.00;0.00;;;;;;;;;;4976100;28;20030;-86
2023/10/02 03:03:29;;;;;;;0.00;0.00;;;;;;;;;;4985774;28;20031;-86
2023/10/02 03:05:52;;;;;;;0.00;0.00;;;;;;;;;;4980673;28;20045;-86
2023/10/02 03:08:18;;;;;;;0.00;0.00;;;;;;;;;;4976149;28;20053;-85
2023/10/02 03:10:46;;;;;;;0.00;0.00;;;;;;;;;;4976546;28;20035;-84
2023/10/02 03:13:18;;;;;;;0.00;0.00;;;;;;;;;;4953417;28;20038;-86
2023/10/02 03:15:46;;;;;;;0.00;0.00;;;;;;;;;;4958356;28;20045;-84
2023/10/02 03:18:30;;;;;;;0.00;0.00;;;;;;;;;;4943490;28;20488;-84
2023/10/02 03:20:58;;;;;;;0.00;0.00;;;;;;;;;;4946094;28;20129;-84
2023/10/02 03:23:27;;;;;;;0.00;0.00;;;;;;;;;;4945817;28;20035;-85
2023/10/02 03:25:56;;;;;;;0.00;0.00;;;;;;;;;;4982139;28;20015;-85
2023/10/02 03:28:27;;;;;;;0.00;0.00;;;;;;;;;;4967364;28;20035;-84
2023/10/02 03:30:53;;;;;;;0.10;0.00;;;;;;;;;;4976460;28;20041;-85
2023/10/02 03:33:20;;;;;;;0.00;0.00;;;;;;;;;;4964313;28;20038;-86
2023/10/02 03:35:58;;;;;;;0.00;0.00;;;;;;;;;;4965287;28;20528;-87
2023/10/02 03:38:29;;;;;;;0.00;0.00;;;;;;;;;;4951247;28;20085;-87
2023/10/02 03:40:56;;;;;;;0.00;0.00;;;;;;;;;;4951551;28;20090;-88
2023/10/02 03:43:34;;;;;;;0.00;0.00;;;;;;;;;;4981382;28;20035;-85
2023/10/02 03:46:06;;;;;;;0.00;0.00;;;;;;;;;;4981476;28;20094;-87
2023/10/02 03:48:33;;;;;;;0.00;0.00;;;;;;;;;;4995719;28;20062;-86
2023/10/02 03:51:07;;;;;;;0.00;0.00;;;;;;;;;;4966962;28;20038;-85
2023/10/02 03:53:34;;;;;;;0.00;0.00;;;;;;;;;;4983019;28;20027;-87
2023/10/02 03:58:50;;;;;;;0.00;0.00;;;;;;;;;;4997039;28;20033;-86
2023/10/02 04:01:29;;;;;;;0.00;0.00;;;;;;;;;;4996720;28;20038;-85
2023/10/02 04:06:53;;;;;;;0.10;0.10;;;;;;;;;;4981496;28;20042;-87
2023/10/02 04:09:23;;;;;;;0.00;0.00;;;;;;;;;;4956598;28;20023;-86
2023/10/02 04:11:52;;;;;;;0.00;0.00;;;;;;;;;;4985438;28;20035;-88
2023/10/02 04:14:18;;;;;;;0.00;0.00;;;;;;;;;;4980175;28;20031;-86
2023/10/02 04:16:48;;;;;;;0.00;0.00;;;;;;;;;;4979567;28;20054;-85
2023/10/02 04:19:15;;;;;;;;;;;;;;;;;;4996959;28;20546;-87
2023/10/02 04:21:47;;;;;;;0.00;0.00;;;;;;;;;;4999442;28;19921;-88
2023/10/02 04:24:13;;;;;;;0.00;0.00;;;;;;;;;;4986839;28;20114;-88
2023/10/02 04:26:41;;;;;;;0.00;0.00;;;;;;;;;;5003372;28;20479;-90
2023/10/02 04:29:15;;;;;;;0.00;0.00;;;;;;;;;;4981317;28;20157;-77
2023/10/02 04:31:44;;;;;;;0.00;0.00;;;;;;;;;;5001672;28;20022;-77
2023/10/02 04:34:24;;;;;;;0.00;0.00;;;;;;;;;;4997662;28;20349;-77
2023/10/02 04:36:51;;;;;;;0.00;0.00;;;;;;;;;;4961227;28;20031;-77
2023/10/02 04:42:12;;;;;;;0.10;0.00;;;;;;;;;;4942700;29;20405;-77
2023/10/02 04:44:44;;;;;;;0.00;0.00;;;;;;;;;;4977378;28;20101;-77
2023/10/02 04:47:17;;;;;;;0.00;0.00;;;;;;;;;;4973732;28;20099;-77
2023/10/02 04:55:24;;;;;;;0.00;0.00;;;;;;;;;;4973641;28;20030;-77
2023/10/02 04:58:03;;;;;;;0.00;0.00;;;;;;;;;;4969114;28;20080;-77
2023/10/02 05:00:36;;;;;;;0.22;0.00;;;;;;;;;;4959990;28;20133;-76
2023/10/02 05:05:49;;;;;;;0.00;0.00;;;;;;;;;;4966749;28;20037;-79
2023/10/02 05:14:55;;;;;;;0.00;0.00;;;;;;;;;;4936394;29;20038;-78
2023/10/02 05:17:46;;;;;;;0.00;0.00;;;;;;;;;;4939273;28;20101;-77
2023/10/02 05:20:15;;;;;;;0.00;0.00;;;;;;;;;;4954630;28;20468;-77
2023/10/02 05:22:41;;;;;;;0.00;0.00;;;;;;;;;;4954432;28;20104;-79
2023/10/02 05:25:07;;;;;;;0.00;0.00;;;;;;;;;;4969388;28;20030;-76
2023/10/02 05:27:39;;;;;;;0.00;0.00;;;;;;;;;;4972088;28;20026;-76
2023/10/02 05:30:17;;;;;;;0.00;0.00;;;;;;;;;;4969361;28;20370;-78
2023/10/02 05:44:26;;;;;;;0.00;0.00;;;;;;;;;;5011045;28;20376;-80
2023/10/02 05:47:07;;;;;;;0.00;0.00;;;;;;;;;;4995628;28;20520;-77
2023/10/02 05:49:37;;;;;;;0.00;0.00;;;;;;;;;;5013987;28;20439;-77
2023/10/02 05:52:03;;;;;;;0.00;0.00;;;;;;;;;;5013015;28;20041;-78
2023/10/02 05:54:47;;;;;;;0.00;0.00;;;;;;;;;;5015120;28;20034;-79
2023/10/02 05:57:31;;;;;;;0.00;0.00;;;;;;;;;;4975375;28;20045;-77
2023/10/02 06:00:06;;;;;;;0.00;0.00;;;;;;;;;;4993865;28;20157;-78
2023/10/02 06:02:32;;;;;;;0.00;0.00;;;;;;;;;;4987616;28;20026;-75
2023/10/02 06:05:07;;;;;;;0.00;0.00;;;;;;;;;;5005435;28;20040;-76
2023/10/02 06:07:46;;;;;;;0.00;0.00;;;;;;;;;;4989889;28;20037;-77
2023/10/02 06:10:46;;;;;;;0.00;0.00;;;;;;;;;;4978071;28;20031;-77
2023/10/02 06:13:05;;;;;;;0.00;0.00;;;;;;;;;;4996524;28;20061;-79
2023/10/02 06:15:52;;;;;;;0.00;0.00;;;;;;;;;;4991858;28;20038;-77
2023/10/02 06:30:00;;;;;;;0.00;0.00;;;;;;;;;;5181694;23;20481;-76
2023/10/02 06:33:28;;;;;;;0.00;0.00;;;;;;;;;;4958198;28;20651;-78
2023/10/02 06:36:05;;;;;;;0.10;0.00;;;;;;;;;;4967067;28;20045;-78
2023/10/02 07:05:34;;;;;;;0.00;0.00;;;;;;;;;;4352812;23;20045;-76
2023/10/02 07:08:17;;;;;;;0.00;0.00;;;;;;;;;;4976546;28;20078;-77
2023/10/02 07:10:47;;;;;;;0.00;0.00;;;;;;;;;;4994597;28;20029;-79
2023/10/02 07:13:22;;;;;;;0.00;0.00;;;;;;;;;;4993272;28;20476;-78
2023/10/02 07:16:01;;;;;;;0.00;0.00;;;;;;;;;;4979807;28;20085;-77
2023/10/02 07:18:49;;;;;;;0.00;0.00;;;;;;;;;;4978719;28;20018;-77
2023/10/02 07:21:21;;;;;;;0.00;0.00;;;;;;;;;;4975360;28;20034;-79
2023/10/02 07:24:25;;;;;;;0.00;0.00;;;;;;;;;;4988215;28;20057;-77
2023/10/02 07:26:51;;;;;;;0.00;0.00;;;;;;;;;;4986698;28;20120;-76
2023/10/02 07:29:19;;;;;;;0.00;0.00;;;;;;;;;;4978715;28;20030;-79
2023/10/02 07:31:45;;;;;;;0.00;0.00;;;;;;;;;;4977201;28;20037;-76
2023/10/02 07:34:15;;;;;;;0.05;0.00;;;;;;;;;;4974993;28;20026;-79
2023/10/02 07:36:44;;;;;;;0.00;0.00;;;;;;;;;;4975574;28;20448;-80
2023/10/02 07:39:35;;;;;;;0.00;0.00;;;;;;;;;;4976669;28;20070;-79
2023/10/02 07:42:04;;;;;;;0.00;0.00;;;;;;;;;;4988236;28;20030;-77
2023/10/02 07:44:38;;;;;;;0.00;0.00;;;;;;;;;;4975807;28;20456;-77
2023/10/02 07:47:21;;;;;;;0.00;0.00;;;;;;;;;;4976461;28;20035;-78
2023/10/02 07:49:58;;;;;;;0.00;0.00;;;;;;;;;;4976082;28;20122;-78
2023/10/02 07:52:29;;;;;;;0.00;0.00;;;;;;;;;;4990122;28;20031;-76
2023/10/02 07:54:58;;;;;;;0.00;0.00;;;;;;;;;;4971390;28;20050;-77
2023/10/02 07:57:30;;;;;;;0.00;0.00;;;;;;;;;;4968311;28;20033;-77
2023/10/02 08:00:33;;;;;;;0.00;0.00;;;;;;;;;;4990206;28;20034;-79
2023/10/02 08:20:32;;;;;;;0.00;0.00;;;;;;;;;;4837698;26;20065;-83
2023/10/02 08:23:02;;;;;;;0.00;0.00;;;;;;;;;;5003675;28;20038;-82
2023/10/02 08:25:27;;;;;;;0.00;0.00;;;;;;;;;;4984268;28;20038;-87
2023/10/02 08:27:55;;;;;;;0.00;0.00;;;;;;;;;;4953959;28;20035;-84
2023/10/02 08:30:29;;;;;;;0.00;0.00;;;;;;;;;;4994117;28;20408;-91
2023/10/02 08:33:11;;;;;;;0.00;0.00;;;;;;;;;;4975715;28;20086;-85
2023/10/02 08:35:37;;;;;;;0.00;0.00;;;;;;;;;;4970458;28;20033;-87
2023/10/02 08:38:21;;;;;;;0.00;0.00;;;;;;;;;;4990478;28;20058;-87
2023/10/02 08:40:57;;;;;;;0.00;0.00;;;;;;;;;;4981714;28;20110;-88
2023/10/02 08:43:23;;;;;;;0.00;0.00;;;;;;;;;;4984173;28;20487;-88
2023/10/02 09:16:18;;;;;;;0.00;0.00;;;;;;;;;;5393758;23;20055;-83
2023/10/02 09:22:25;;;;;;;0.00;0.00;;;;;;;;;;4953126;28;20038;-86
2023/10/02 09:25:13;;;;;;;0.00;0.00;;;;;;;;;;4997660;28;20415;-84
2023/10/02 09:28:13;;;;;;;0.00;0.00;;;;;;;;;;4997410;28;20026;-90
2023/10/02 09:30:41;;;;;;;0.00;0.00;;;;;;;;;;4981717;28;20033;-82
2023/10/02 09:33:37;;;;;;;0.00;0.00;;;;;;;;;;4979851;28;20663;-85
2023/10/02 09:36:05;;;;;;;0.00;0.00;;;;;;;;;;4982359;28;20517;-80
2023/10/02 09:38:32;;;;;;;0.00;0.00;;;;;;;;;;4988071;28;20026;-89
2023/10/02 09:43:38;;;;;;;0.00;0.00;;;;;;;;;;4970110;28;20127;-86
2023/10/02 09:46:05;;;;;;;0.00;0.00;;;;;;;;;;4964383;28;20117;-88
2023/10/02 09:49:02;;;;;;;0.00;0.00;;;;;;;;;;4967420;28;20448;-90
2023/10/02 09:52:11;;;;;;;0.00;0.00;;;;;;;;;;4985219;28;20038;-88
2023/10/02 09:55:03;;;;;;;0.00;0.00;;;;;;;;;;5000101;28;20062;-84
2023/10/02 09:57:55;;;;;;;0.00;0.00;;;;;;;;;;4978136;28;20041;-85
2023/10/02 10:00:37;;;;;;;0.00;0.00;;;;;;;;;;4982083;28;20054;-84
2023/10/02 10:03:23;;;;;;;0.00;0.00;;;;;;;;;;4992514;28;20034;-85
2023/10/02 10:06:08;;;;;;;0.00;0.00;;;;;;;;;;4993953;28;20026;-85
2023/10/02 10:14:42;;;;;;;0.00;0.00;;;;;;;;;;5010579;28;20037;-85
2023/10/02 10:18:12;;;;;;;0.00;0.00;;;;;;;;;;4970223;28;20054;-82
2023/10/02 10:20:20;;;;;;;0.00;0.00;;;;;;;;;;4972221;28;20119;-81
2023/10/02 10:22:55;;;;;;;0.00;0.00;;;;;;;;;;4977774;28;20122;-80
2023/10/02 10:27:54;;;;;;;0.00;0.00;;;;;;;;;;4976164;28;20077;-87
2023/10/02 10:35:36;;;;;;;0.00;0.00;;;;;;;;;;4968479;28;20549;-84
2023/10/02 10:38:07;;;;;;;0.00;0.00;;;;;;;;;;4972519;28;20031;-79
2023/10/02 10:40:54;;;;;;;0.00;0.00;;;;;;;;;;4938572;28;20058;-83
2023/10/02 10:46:30;;;;;;;0.00;0.00;;;;;;;;;;4981895;28;20030;-84
2023/10/02 10:48:59;;;;;;;0.00;0.00;;;;;;;;;;4975020;28;20061;-83
2023/10/02 10:51:28;;;;;;;0.00;0.00;;;;;;;;;;4942906;28;20035;-85
2023/10/02 10:54:12;;;;;;;0.00;0.00;;;;;;;;;;4972078;28;20127;-82
2023/10/02 10:56:46;;;;;;;0.10;0.00;;;;;;;;;;4976787;28;20120;-86
2023/10/02 10:59:12;;;;;;;0.00;0.00;;;;;;;;;;4952907;28;20473;-85
2023/10/02 11:02:36;;;;;;;0.00;0.00;;;;;;;;;;4951809;28;20045;-86
2023/10/02 11:04:40;;;;;;;0.00;0.00;;;;;;;;;;4943332;28;20054;-84
2023/10/02 11:07:25;;;;;;;0.00;0.00;;;;;;;;;;4956481;28;20031;-83
2023/10/02 11:10:19;;;;;;;0.00;0.00;;;;;;;;;;4967240;28;20023;-84
2023/10/02 11:12:56;;;;;;;0.00;0.00;;;;;;;;;;4947669;28;20089;-82
2023/10/02 11:15:46;;;;;;;0.00;0.00;;;;;;;;;;4980671;28;20133;-84
2023/10/02 11:18:18;;;;;;;0.00;0.00;;;;;;;;;;4989460;28;20554;-85
2023/10/02 11:23:44;;;;;;;0.00;0.00;;;;;;;;;;4979828;28;20104;-84
2023/10/02 11:26:13;;;;;;;0.00;0.00;;;;;;;;;;4977156;28;20026;-86
2023/10/02 11:28:44;;;;;;;0.00;0.00;;;;;;;;;;4989486;28;20133;-86
2023/10/02 11:31:29;;;;;;;0.00;0.00;;;;;;;;;;4971908;28;20034;-87
2023/10/02 11:34:06;;;;;;;0.00;0.00;;;;;;;;;;4974516;28;20108;-86
2023/10/02 11:36:44;;;;;;;0.00;0.00;;;;;;;;;;4975964;28;20026;-86
2023/10/02 11:39:16;;;;;;;0.00;0.00;;;;;;;;;;4992875;28;20022;-87
2023/10/02 11:41:41;;;;;;;0.00;0.00;;;;;;;;;;4993542;28;20030;-86
2023/10/02 11:44:11;;;;;;;0.00;0.00;;;;;;;;;;4992965;28;20120;-85
2023/10/02 11:46:36;;;;;;;0.00;0.00;;;;;;;;;;4960646;28;20121;-87
2023/10/02 11:49:03;;;;;;;0.00;0.00;;;;;;;;;;4995124;28;20129;-87
2023/10/02 11:51:31;;;;;;;0.00;0.00;;;;;;;;;;5001051;28;20090;-84
2023/10/02 11:53:57;;;;;;;0.00;0.00;;;;;;;;;;5001337;28;20038;-88
2023/10/02 11:56:23;;;;;;;0.00;0.00;;;;;;;;;;4963437;28;20042;-88
2023/10/02 11:58:52;;;;;;;0.00;0.00;;;;;;;;;;4979456;28;20367;-86
2023/10/02 12:01:21;;;;;;;0.00;0.00;;;;;;;;;;4997221;28;20065;-89
2023/10/02 12:03:48;;;;;;;0.00;0.00;;;;;;;;;;4980697;28;20026;-85
2023/10/02 12:06:16;;;;;;;0.00;0.00;;;;;;;;;;4981501;28;20448;-86
2023/10/02 12:08:44;;;;;;;0.00;0.00;;;;;;;;;;4980926;28;20045;-86
2023/10/02 12:11:13;;;;;;;0.00;0.00;;;;;;;;;;4980464;28;20120;-87
2023/10/02 12:13:39;;;;;;;0.00;0.00;;;;;;;;;;4986666;28;20022;-85
2023/10/02 12:16:07;;;;;;;0.00;0.00;;;;;;;;;;4982329;28;20054;-87
2023/10/02 12:18:35;;;;;;;0.00;0.00;;;;;;;;;;4961762;28;20127;-86
2023/10/02 12:21:00;;;;;;;0.00;0.00;;;;;;;;;;4945577;28;20019;-86
2023/10/02 12:23:28;;;;;;;0.00;0.00;;;;;;;;;;4929212;28;20502;-86
2023/10/02 12:25:56;;;;;;;0.00;0.00;;;;;;;;;;4961282;28;20034;-88
2023/10/02 12:28:21;;;;;;;0.00;0.00;;;;;;;;;;4960842;28;20121;-87
2023/10/02 12:30:48;;;;;;;0.00;0.00;;;;;;;;;;4960922;28;20061;-87
2023/10/02 12:33:14;;;;;;;0.00;0.00;;;;;;;;;;4960789;28;20560;-87
2023/10/02 12:35:40;;;;;;;0.00;0.00;;;;;;;;;;4961282;28;20035;-86
2023/10/02 12:38:07;;;;;;;0.00;0.00;;;;;;;;;;4980156;28;20027;-86
2023/10/02 12:40:33;;;;;;;0.00;0.00;;;;;;;;;;4978694;28;20062;-85
2023/10/02 12:43:03;;;;;;;0.00;0.00;;;;;;;;;;4961130;28;20038;-86
2023/10/02 12:45:35;;;;;;;0.00;0.00;;;;;;;;;;4960743;28;20038;-85
2023/10/02 12:48:08;;;;;;;0.00;0.00;;;;;;;;;;4978342;28;20092;-86
2023/10/02 12:50:38;;;;;;;0.00;0.00;;;;;;;;;;4960603;28;20098;-85
2023/10/02 12:53:04;;;;;;;0.00;0.00;;;;;;;;;;4960522;28;20089;-85
2023/10/02 12:55:32;;;;;;;0.00;0.00;;;;;;;;;;4961293;28;20031;-88
2023/10/02 12:57:58;;;;;;;0.00;0.00;;;;;;;;;;4960421;28;20023;-86
2023/10/02 13:00:24;;;;;;;0.00;0.00;;;;;;;;;;4987078;28;20504;-86
2023/10/02 13:02:49;;;;;;;0.00;0.00;;;;;;;;;;4977785;28;20033;-86
2023/10/02 13:05:15;;;;;;;0.00;0.00;;;;;;;;;;4960641;28;20133;-85
2023/10/02 13:07:41;;;;;;;0.00;0.00;;;;;;;;;;4977049;28;20113;-85
2023/10/02 13:10:08;;;;;;;0.08;0.00;;;;;;;;;;4929515;28;20022;-86
2023/10/02 13:12:34;;;;;;;0.00;0.00;;;;;;;;;;4960845;28;20491;-86
2023/10/02 13:14:59;;;;;;;0.00;0.00;;;;;;;;;;4960371;28;20028;-85
2023/10/02 13:17:25;;;;;;;0.00;0.00;;;;;;;;;;4977935;28;20054;-84
2023/10/02 13:19:51;;;;;;;0.00;0.00;;;;;;;;;;4998588;28;20030;-86
2023/10/02 13:22:16;;;;;;;0.00;0.00;;;;;;;;;;4999173;28;20026;-85
2023/10/02 13:24:42;;;;;;;0.00;0.00;;;;;;;;;;4980051;28;20034;-86
2023/10/02 13:27:08;;;;;;;0.00;0.00;;;;;;;;;;4997249;28;20074;-85
2023/10/02 13:29:34;;;;;;;0.00;0.00;;;;;;;;;;4997739;28;20029;-84
2023/10/02 13:32:01;;;;;;;0.00;0.00;;;;;;;;;;4964099;28;20030;-85
2023/10/02 13:34:27;;;;;;;0.00;0.00;;;;;;;;;;4985292;28;20050;-84
2023/10/02 13:36:52;;;;;;;0.00;0.00;;;;;;;;;;4984792;28;20088;-84
2023/10/02 13:39:18;;;;;;;0.00;0.00;;;;;;;;;;4999610;28;20030;-84
2023/10/02 13:41:45;;;;;;;0.00;0.00;;;;;;;;;;4964368;28;20034;-86
2023/10/02 13:44:11;;;;;;;0.00;0.00;;;;;;;;;;4981025;28;20472;-85
2023/10/02 13:46:38;;;;;;;0.00;0.00;;;;;;;;;;4979898;28;20049;-85
2023/10/02 13:49:04;;;;;;;0.00;0.00;;;;;;;;;;4979821;28;20114;-85
2023/10/02 13:51:31;;;;;;;0.00;0.00;;;;;;;;;;4996647;28;20062;-86
2023/10/02 13:53:57;;;;;;;0.00;0.00;;;;;;;;;;4982400;28;20033;-84
2023/10/02 13:56:30;;;;;;;0.00;0.00;;;;;;;;;;4980052;28;20030;-85
2023/10/02 13:58:55;;;;;;;0.00;0.00;;;;;;;;;;4997082;28;20073;-85
2023/10/02 14:01:24;;;;;;;0.00;0.00;;;;;;;;;;4995343;28;20034;-86
2023/10/02 14:03:51;;;;;;;0.00;0.00;;;;;;;;;;4979603;28;20468;-86
2023/10/02 14:06:20;;;;;;;0.00;0.00;;;;;;;;;;4996703;28;20034;-84
2023/10/02 14:08:45;;;;;;;0.00;0.00;;;;;;;;;;4979832;28;20437;-85
2023/10/02 14:11:18;;;;;;;0.00;0.00;;;;;;;;;;4962204;28;20033;-85
2023/10/02 14:13:47;;;;;;;0.00;0.00;;;;;;;;;;4996323;28;20436;-85
2023/10/02 14:16:13;;;;;;;;;;;;;;;;;;4980264;28;20077;-85
2023/10/02 14:18:41;;;;;;;0.00;0.00;;;;;;;;;;4997165;28;19914;-84
2023/10/02 14:21:09;;;;;;;0.00;0.00;;;;;;;;;;4980367;28;20030;-84
2023/10/02 14:23:34;;;;;;;0.00;0.00;;;;;;;;;;4985020;28;20052;-84
2023/10/02 14:26:01;;;;;;;0.00;0.00;;;;;;;;;;4973770;28;20065;-85
2023/10/02 14:28:27;;;;;;;0.00;0.00;;;;;;;;;;4984713;28;20026;-84
2023/10/02 14:30:53;;;;;;;0.00;0.00;;;;;;;;;;4996568;28;20031;-84
2023/10/02 14:33:19;;;;;;;0.00;0.00;;;;;;;;;;4995882;28;20104;-84
2023/10/02 14:35:45;;;;;;;0.00;0.00;;;;;;;;;;4981245;28;20039;-84
2023/10/02 14:38:13;;;;;;;0.00;0.00;;;;;;;;;;4990506;28;20041;-84
2023/10/02 14:40:39;;;;;;;0.00;0.00;;;;;;;;;;4998836;28;20037;-84
2023/10/02 14:43:05;;;;;;;0.00;0.00;;;;;;;;;;4983364;28;20022;-84
2023/10/02 14:45:30;;;;;;;0.00;0.00;;;;;;;;;;4993905;28;20027;-85
2023/10/02 14:47:56;;;;;;;0.00;0.00;;;;;;;;;;4996855;28;20093;-85
2023/10/02 14:50:25;;;;;;;0.00;0.00;;;;;;;;;;4982448;28;20026;-85
2023/10/02 14:52:52;;;;;;;0.00;0.00;;;;;;;;;;4998928;28;20034;-86
2023/10/02 14:55:18;;;;;;;0.00;0.00;;;;;;;;;;4984801;28;20026;-84
2023/10/02 14:57:47;;;;;;;0.00;0.00;;;;;;;;;;4982514;28;20050;-85
2023/10/02 15:00:14;;;;;;;0.00;0.00;;;;;;;;;;4996478;28;20103;-85
2023/10/02 15:02:42;;;;;;;0.00;0.00;;;;;;;;;;4999686;28;20045;-85
2023/10/02 15:05:18;;;;;;;0.00;0.00;;;;;;;;;;5015119;28;20028;-85
2023/10/02 15:07:47;;;;;;;0.00;0.00;;;;;;;;;;4996325;28;20035;-85
2023/10/02 15:10:15;;;;;;;0.00;0.00;;;;;;;;;;4978839;28;20096;-86
2023/10/02 15:12:40;;;;;;;0.00;0.00;;;;;;;;;;4981460;28;20045;-84
2023/10/02 15:15:13;;;;;;;0.00;0.00;;;;;;;;;;4995881;28;20421;-86
2023/10/02 15:17:43;;;;;;;0.00;0.00;;;;;;;;;;4995958;28;20046;-85
2023/10/02 15:20:13;;;;;;;0.00;0.00;;;;;;;;;;4978609;28;20038;-88
2023/10/02 15:22:45;;;;;;;0.00;0.00;;;;;;;;;;4966676;28;20034;-87
2023/10/02 15:25:14;;;;;;;0.00;0.00;;;;;;;;;;4999157;28;20061;-86
2023/10/02 15:27:50;;;;;;;0.00;0.00;;;;;;;;;;4997523;28;20088;-86
2023/10/02 15:30:17;;;;;;;0.00;0.00;;;;;;;;;;4982305;28;20337;-86
2023/10/02 15:32:46;;;;;;;0.00;0.00;;;;;;;;;;4966647;28;20129;-85
2023/10/02 15:35:19;;;;;;;0.00;0.00;;;;;;;;;;4965378;28;20073;-85
2023/10/02 15:37:54;;;;;;;0.00;0.00;;;;;;;;;;4966596;28;20113;-85
2023/10/02 15:40:22;;;;;;;0.00;0.00;;;;;;;;;;4981790;28;20027;-85
2023/10/02 15:42:52;;;;;;;0.00;0.00;;;;;;;;;;4981688;28;20062;-86
2023/10/02 15:45:19;;;;;;;0.00;0.00;;;;;;;;;;4981131;28;20440;-86
2023/10/02 15:47:47;;;;;;;0.00;0.00;;;;;;;;;;4997541;28;20503;-84
2023/10/02 15:50:22;;;;;;;0.00;0.00;;;;;;;;;;4949199;28;20360;-86
2023/10/02 15:52:48;;;;;;;0.00;0.00;;;;;;;;;;4968367;28;20050;-85
2023/10/02 15:55:29;;;;;;;0.00;0.00;;;;;;;;;;4983431;28;20587;-84
2023/10/02 15:57:54;;;;;;;0.00;0.00;;;;;;;;;;4997764;28;20030;-84
2023/10/02 16:00:22;;;;;;;0.00;0.00;;;;;;;;;;4998898;28;20034;-85
2023/10/02 16:02:53;;;;;;;0.00;0.00;;;;;;;;;;4980258;28;20027;-86
2023/10/02 16:05:19;;;;;;;0.00;0.00;;;;;;;;;;4964994;28;20026;-85
2023/10/02 16:07:48;;;;;;;0.00;0.00;;;;;;;;;;4998613;28;20025;-85
2023/10/02 16:10:15;;;;;;;0.00;0.00;;;;;;;;;;4998198;28;20049;-86
2023/10/02 16:12:41;;;;;;;0.00;0.00;;;;;;;;;;4998568;28;20120;-85
2023/10/02 16:15:13;;;;;;;0.00;0.00;;;;;;;;;;5000226;28;20077;-84
2023/10/02 16:17:39;;;;;;;0.00;0.00;;;;;;;;;;4969878;28;20061;-86
2023/10/02 16:20:05;;;;;;;0.00;0.00;;;;;;;;;;4997983;28;20034;-85
2023/10/02 16:22:34;;;;;;;0.00;0.00;;;;;;;;;;4980351;28;20065;-86
2023/10/02 16:25:02;;;;;;;0.00;0.00;;;;;;;;;;4997770;28;20029;-85
2023/10/02 16:27:28;;;;;;;0.00;0.00;;;;;;;;;;4963429;28;20078;-85
2023/10/02 16:29:53;;;;;;;0.00;0.00;;;;;;;;;;4963984;28;20034;-84
2023/10/02 16:32:18;;;;;;;0.00;0.00;;;;;;;;;;4982603;28;20077;-84
2023/10/02 16:34:44;;;;;;;0.00;0.00;;;;;;;;;;4980774;28;20118;-86
2023/10/02 16:37:10;;;;;;;0.00;0.00;;;;;;;;;;5000018;28;20038;-86
2023/10/02 16:39:35;;;;;;;0.00;0.00;;;;;;;;;;4980367;28;20026;-85
2023/10/02 16:42:03;;;;;;;0.00;0.00;;;;;;;;;;4998405;28;20460;-87
2023/10/02 16:44:28;;;;;;;0.00;0.00;;;;;;;;;;4997294;28;20409;-85
2023/10/02 16:46:54;;;;;;;0.00;0.00;;;;;;;;;;4997188;28;20029;-86
2023/10/02 16:49:19;;;;;;;0.00;0.00;;;;;;;;;;4963674;28;20026;-85
2023/10/02 16:51:45;;;;;;;0.00;0.00;;;;;;;;;;4963579;28;20022;-86
2023/10/02 16:54:11;;;;;;;0.00;0.00;;;;;;;;;;4996887;28;20030;-85
2023/10/02 16:56:38;;;;;;;0.00;0.00;;;;;;;;;;4980024;28;20030;-85
2023/10/02 16:59:03;;;;;;;0.00;0.00;;;;;;;;;;5000674;28;20375;-85
2023/10/02 17:01:29;;;;;;;0.00;0.00;;;;;;;;;;5000005;28;20034;-85
2023/10/02 17:03:55;;;;;;;0.00;0.00;;;;;;;;;;4979869;28;20041;-86
2023/10/02 17:06:21;;;;;;;0.00;0.00;;;;;;;;;;4996972;28;20368;-86
2023/10/02 17:08:48;;;;;;;0.00;0.00;;;;;;;;;;4979710;28;20038;-86
2023/10/02 17:11:15;;;;;;;0.00;0.00;;;;;;;;;;4963079;28;20034;-86
2023/10/02 17:13:40;;;;;;;0.00;0.00;;;;;;;;;;4979235;28;20026;-85
2023/10/02 17:16:07;;;;;;;0.00;0.00;;;;;;;;;;4962312;28;20046;-85
2023/10/02 17:18:33;;;;;;;0.00;0.00;;;;;;;;;;4963464;28;20038;-84
2023/10/02 17:20:58;;;;;;;0.00;0.00;;;;;;;;;;4963498;28;20034;-84
2023/10/02 17:23:29;;;;;;;0.00;0.00;;;;;;;;;;4979723;28;20121;-84
2023/10/02 17:25:58;;;;;;;0.00;0.00;;;;;;;;;;4996298;28;20030;-85
2023/10/02 17:28:28;;;;;;;0.00;0.00;;;;;;;;;;4979111;28;20066;-85
2023/10/02 17:30:56;;;;;;;0.00;0.00;;;;;;;;;;4977979;28;20035;-83
2023/10/02 17:33:21;;;;;;;0.00;0.00;;;;;;;;;;4994832;28;20113;-84
2023/10/02 17:35:47;;;;;;;0.00;0.00;;;;;;;;;;4978514;28;20499;-84
2023/10/02 17:38:12;;;;;;;0.00;0.00;;;;;;;;;;4978450;28;20054;-85
2023/10/02 17:40:38;;;;;;;0.00;0.00;;;;;;;;;;4995961;28;20065;-85
2023/10/02 17:43:04;;;;;;;0.00;0.00;;;;;;;;;;4999199;28;20125;-84